Terminal Aerodrome Forecast
Issued by NWS

Home | Current Version | Previous Version | Text Only | Print | Product List | Glossary On
Versions: 1 2 3 4 5 6 7 8 9 10 11 12 13 14 15
646
FTUS46 KSTO 241737
TAFSCK
TAF
KSCK 241737Z 2418/2518 33008KT P6SM SKC
     FM250900 13003KT 3SM BR BCFG SCT002
      TEMPO 2512/2516 1/4SM FG VV001=

USA.gov is the U.S. government's official web portal to all federal, state and local government web resources and services.